createdAt,value
2023-01-10T00:01:25.941Z,23.00
2023-01-10T00:04:52.911Z,23.00
2023-01-10T00:08:20.180Z,26.30
2023-01-10T00:12:04.956Z,22.30
2023-01-10T00:15:34.845Z,23.10
2023-01-10T00:19:01.763Z,22.80
2023-01-10T00:22:28.717Z,23.30
2023-01-10T00:25:55.759Z,23.00
2023-01-10T00:29:26.044Z,23.00
2023-01-10T00:32:53.044Z,23.80
2023-01-10T00:36:20.170Z,21.30
2023-01-10T00:39:47.383Z,23.60
2023-01-10T00:43:31.979Z,23.40
2023-01-10T00:46:58.942Z,24.50
2023-01-10T00:50:25.825Z,24.50
2023-01-10T00:53:52.959Z,22.30
2023-01-10T00:57:20.027Z,23.00
2023-01-10T01:00:49.733Z,23.30
2023-01-10T01:04:17.203Z,23.80
2023-01-10T01:07:44.245Z,23.30
2023-01-10T01:11:11.117Z,22.50
2023-01-10T01:14:37.973Z,23.70
2023-01-10T01:18:05.745Z,23.30
2023-01-10T01:21:32.795Z,24.80
2023-01-10T01:24:59.748Z,24.10
2023-01-10T01:28:28.660Z,24.40
2023-01-10T01:31:57.162Z,26.10
2023-01-10T01:35:25.239Z,26.50
2023-01-10T01:38:52.137Z,27.50
2023-01-10T01:42:28.684Z,26.80
2023-01-10T01:45:59.248Z,25.10
2023-01-10T01:49:27.270Z,24.20
2023-01-10T01:52:58.154Z,25.00
2023-01-10T01:56:30.994Z,23.70
2023-01-10T01:59:58.925Z,23.80
2023-01-10T02:03:26.357Z,24.60
2023-01-10T02:06:56.498Z,23.70
2023-01-10T02:10:31.100Z,23.20
2023-01-10T02:13:59.220Z,23.80
2023-01-10T02:17:26.076Z,22.30
2023-01-10T02:21:14.174Z,23.80
2023-01-10T02:25:12.235Z,22.10
2023-01-10T02:29:02.425Z,22.30
2023-01-10T02:32:53.404Z,21.00
2023-01-10T02:36:37.088Z,20.10
2023-01-10T02:40:11.643Z,20.60
2023-01-10T02:43:47.130Z,21.50
2023-01-10T02:47:16.283Z,21.20
2023-01-10T02:50:54.854Z,19.60
2023-01-10T02:54:25.100Z,18.50
2023-01-10T02:57:58.125Z,19.70
2023-01-10T03:01:35.361Z,19.30
2023-01-10T03:05:11.214Z,17.40
2023-01-10T03:08:43.658Z,20.30
2023-01-10T03:12:18.860Z,18.90
2023-01-10T03:15:49.282Z,18.90
2023-01-10T03:19:20.923Z,17.90
2023-01-10T03:22:49.028Z,18.80
2023-01-10T03:26:17.195Z,18.70
2023-01-10T03:29:50.228Z,19.00
2023-01-10T03:33:21.092Z,19.70
2023-01-10T03:36:57.547Z,18.80
2023-01-10T03:40:31.799Z,18.90
2023-01-10T03:44:38.421Z,18.80
2023-01-10T03:48:09.543Z,17.80
2023-01-10T03:51:38.528Z,17.70
2023-01-10T03:55:06.796Z,18.20
2023-01-10T03:58:34.613Z,17.70
2023-01-10T04:02:01.592Z,16.60
2023-01-10T04:05:28.758Z,18.10
2023-01-10T04:08:55.649Z,17.50
2023-01-10T04:12:22.761Z,17.10
2023-01-10T04:15:50.937Z,17.80
2023-01-10T04:19:17.808Z,18.70
2023-01-10T04:22:46.132Z,18.40
2023-01-10T04:26:13.375Z,18.90
2023-01-10T04:29:40.596Z,18.70
2023-01-10T04:33:07.883Z,19.50
2023-01-10T04:36:34.804Z,18.90
2023-01-10T04:40:01.822Z,19.40
2023-01-10T04:43:29.215Z,18.20
2023-01-10T04:46:56.266Z,18.90
2023-01-10T04:50:23.940Z,19.10
2023-01-10T04:53:50.844Z,20.00
2023-01-10T04:57:18.171Z,18.80
2023-01-10T05:00:45.326Z,18.30
2023-01-10T05:04:12.286Z,18.00
2023-01-10T05:07:39.175Z,16.90
2023-01-10T05:11:06.302Z,17.20
2023-01-10T05:14:33.214Z,15.60
2023-01-10T05:18:01.982Z,14.50
2023-01-10T05:21:28.816Z,15.80
2023-01-10T05:24:55.954Z,14.50
2023-01-10T05:28:22.855Z,14.80
2023-01-10T05:31:51.592Z,13.70
2023-01-10T05:35:18.682Z,15.70
2023-01-10T05:38:46.117Z,14.90
2023-01-10T05:42:13.228Z,13.80
2023-01-10T05:45:40.464Z,13.60
2023-01-10T05:49:07.687Z,14.10
2023-01-10T05:52:34.579Z,13.10
2023-01-10T05:56:03.346Z,14.30
2023-01-10T05:59:30.283Z,13.80
2023-01-10T06:02:58.885Z,15.00
2023-01-10T06:06:25.760Z,14.60
2023-01-10T06:09:52.795Z,15.20
2023-01-10T06:13:19.745Z,14.70
2023-01-10T06:16:47.122Z,14.90
2023-01-10T06:20:15.535Z,15.20
2023-01-10T06:23:42.360Z,15.90
2023-01-10T06:27:09.664Z,13.90
2023-01-10T06:30:36.789Z,15.50
2023-01-10T06:34:03.669Z,15.10
2023-01-10T06:37:30.556Z,15.20
2023-01-10T06:40:57.436Z,16.90
2023-01-10T06:44:24.304Z,20.40
2023-01-10T06:47:51.159Z,22.50
2023-01-10T06:51:20.317Z,19.00
2023-01-10T06:54:47.573Z,16.10
2023-01-10T06:58:18.451Z,16.10
2023-01-10T07:01:45.622Z,15.30
2023-01-10T07:05:12.769Z,20.80
2023-01-10T07:08:40.597Z,28.70
2023-01-10T07:12:08.284Z,22.30
2023-01-10T07:15:35.139Z,17.40
2023-01-10T07:19:02.444Z,15.80
2023-01-10T07:22:29.481Z,15.00
2023-01-10T07:25:56.511Z,16.70
2023-01-10T07:29:23.382Z,23.60
2023-01-10T07:32:55.894Z,19.50
2023-01-10T07:36:23.317Z,16.30
2023-01-10T07:39:51.138Z,15.30
2023-01-10T07:43:18.340Z,14.20
2023-01-10T07:46:45.622Z,14.40
2023-01-10T07:50:13.355Z,18.00
2023-01-10T07:53:40.970Z,23.10
2023-01-10T07:57:07.852Z,27.40
2023-01-10T08:00:34.745Z,30.10
2023-01-10T08:04:01.588Z,26.00
2023-01-10T08:07:29.619Z,23.80
2023-01-10T08:10:56.620Z,19.80
2023-01-10T08:14:23.839Z,23.40
2023-01-10T08:17:50.757Z,22.90
2023-01-10T08:21:17.953Z,21.00
2023-01-10T08:24:45.172Z,17.40
2023-01-10T08:28:12.797Z,16.20
2023-01-10T08:31:41.401Z,17.00
2023-01-10T08:35:09.759Z,17.10
2023-01-10T08:38:36.676Z,18.10
2023-01-10T08:42:03.661Z,17.70
2023-01-10T08:45:30.955Z,17.20
2023-01-10T08:48:57.914Z,18.20
2023-01-10T08:52:24.784Z,17.30
2023-01-10T08:55:52.940Z,17.10
2023-01-10T08:59:20.032Z,16.10
2023-01-10T09:02:47.202Z,16.90
2023-01-10T09:06:14.497Z,15.50
2023-01-10T09:09:41.444Z,16.80
2023-01-10T09:13:09.759Z,15.60
2023-01-10T09:16:36.686Z,14.90
2023-01-10T09:20:07.689Z,15.50
2023-01-10T09:23:37.154Z,15.80
2023-01-10T09:27:04.438Z,16.20
2023-01-10T09:30:32.394Z,17.00
2023-01-10T09:33:59.334Z,14.90
2023-01-10T09:37:26.354Z,15.90
2023-01-10T09:41:34.382Z,15.00
2023-01-10T09:45:09.006Z,13.90
2023-01-10T09:48:44.776Z,14.40
2023-01-10T09:52:20.766Z,13.90
2023-01-10T09:55:51.931Z,14.00
2023-01-10T09:59:22.210Z,15.70
2023-01-10T10:02:52.589Z,15.70
2023-01-10T10:06:19.800Z,15.20
2023-01-10T10:09:46.919Z,16.50
2023-01-10T10:13:27.624Z,15.30
2023-01-10T10:17:15.874Z,15.00
2023-01-10T10:20:54.395Z,16.60
2023-01-10T10:24:38.449Z,15.70
2023-01-10T10:28:22.858Z,15.30
2023-01-10T10:32:08.604Z,15.80
2023-01-10T10:35:39.653Z,16.30
2023-01-10T10:39:08.373Z,18.50
2023-01-10T10:42:40.153Z,16.60
2023-01-10T10:46:12.148Z,15.60
2023-01-10T10:49:44.834Z,15.60
2023-01-10T10:53:13.438Z,16.30
2023-01-10T10:56:41.769Z,15.40
2023-01-10T11:00:16.134Z,15.80
2023-01-10T11:03:48.363Z,16.20
2023-01-10T11:07:19.900Z,16.10
2023-01-10T11:10:51.399Z,16.80
2023-01-10T11:14:38.626Z,15.80
2023-01-10T11:18:11.768Z,15.30
2023-01-10T11:21:40.413Z,15.80
2023-01-10T11:25:15.397Z,15.00
2023-01-10T11:28:45.970Z,16.20
2023-01-10T11:32:17.584Z,16.80
2023-01-10T11:36:00.433Z,15.00
2023-01-10T11:39:27.983Z,14.80
2023-01-10T11:42:59.043Z,15.10
2023-01-10T11:46:27.052Z,16.80
2023-01-10T11:49:54.051Z,16.10
2023-01-10T11:53:37.663Z,27.20
2023-01-10T11:57:09.596Z,28.00
2023-01-10T12:00:42.298Z,16.80
2023-01-10T12:04:14.700Z,17.40
2023-01-10T12:08:06.736Z,16.40
2023-01-10T12:11:35.954Z,19.40
2023-01-10T12:15:25.137Z,16.60
2023-01-10T12:18:54.558Z,15.90
2023-01-10T12:22:27.061Z,17.30
2023-01-10T12:26:10.664Z,20.20
2023-01-10T12:29:42.128Z,17.40
2023-01-10T12:33:16.289Z,16.50
2023-01-10T12:36:52.160Z,16.80
2023-01-10T12:40:25.125Z,16.90
2023-01-10T12:44:09.888Z,16.30
2023-01-10T12:47:49.571Z,16.40
2023-01-10T12:54:47.275Z,15.90
2023-01-10T13:01:48.413Z,16.60
2023-01-10T13:05:22.096Z,14.90
2023-01-10T13:08:49.837Z,14.20
2023-01-10T13:12:24.387Z,14.80
2023-01-10T13:15:55.557Z,15.60
2023-01-10T13:19:30.439Z,15.00
2023-01-10T13:22:59.101Z,15.50
2023-01-10T13:26:26.581Z,16.30
2023-01-10T13:29:54.676Z,17.30
2023-01-10T13:33:24.968Z,14.60
2023-01-10T13:36:56.765Z,16.60
2023-01-10T13:40:28.323Z,16.90
2023-01-10T13:44:14.039Z,17.00
2023-01-10T13:48:04.822Z,17.40
2023-01-10T13:51:32.821Z,17.40
2023-01-10T13:55:02.690Z,18.00
2023-01-10T13:59:03.168Z,17.30
2023-01-10T14:02:32.184Z,16.50
2023-01-10T14:06:00.023Z,15.90
2023-01-10T14:09:40.914Z,15.40
2023-01-10T14:13:17.663Z,15.80
2023-01-10T14:16:48.694Z,14.40
2023-01-10T14:20:23.155Z,33.70
2023-01-10T14:23:54.965Z,21.50
2023-01-10T14:27:23.871Z,44.20
2023-01-10T14:31:02.248Z,22.60
2023-01-10T14:34:32.124Z,77.00
2023-01-10T14:38:03.063Z,127.30
2023-01-10T14:41:38.241Z,126.40
2023-01-10T14:45:19.551Z,101.30
2023-01-10T14:48:51.691Z,168.20
2023-01-10T14:52:22.639Z,85.80
2023-01-10T14:55:49.540Z,97.00
2023-01-10T14:59:30.960Z,56.20
2023-01-10T15:03:01.704Z,32.00
2023-01-10T15:06:28.789Z,26.80
2023-01-10T15:09:57.556Z,21.30
2023-01-10T15:13:28.319Z,21.20
2023-01-10T15:17:00.804Z,20.90
2023-01-10T15:20:28.763Z,20.30
2023-01-10T15:23:56.201Z,20.80
2023-01-10T15:27:23.170Z,20.80
2023-01-10T15:30:50.961Z,21.50
2023-01-10T15:34:21.772Z,23.20
2023-01-10T15:37:53.551Z,21.80
2023-01-10T15:41:24.289Z,19.90
2023-01-10T15:44:56.500Z,20.40
2023-01-10T15:48:33.511Z,18.10
2023-01-10T15:52:00.630Z,18.80
2023-01-10T15:55:48.377Z,21.50
2023-01-10T15:59:28.293Z,21.90
2023-01-10T16:02:56.560Z,23.20
2023-01-10T16:09:56.704Z,24.30
2023-01-10T16:13:39.442Z,21.80
2023-01-10T16:17:14.444Z,20.80
2023-01-10T16:20:46.156Z,19.50
2023-01-10T16:24:21.132Z,24.80
2023-01-10T16:27:48.657Z,25.10
2023-01-10T16:31:16.013Z,21.30
2023-01-10T16:34:43.952Z,23.00
2023-01-10T16:38:13.517Z,36.20
2023-01-10T16:41:58.460Z,37.20
2023-01-10T16:45:25.402Z,30.30
2023-01-10T16:48:53.409Z,30.80
2023-01-10T16:52:20.391Z,28.80
2023-01-10T16:55:49.265Z,29.40
2023-01-10T16:59:19.166Z,28.20
2023-01-10T17:02:46.886Z,24.40
2023-01-10T17:06:15.791Z,23.90
2023-01-10T17:09:42.821Z,26.00
2023-01-10T17:13:11.256Z,26.20
2023-01-10T17:16:38.285Z,51.70
2023-01-10T17:20:06.630Z,38.20
2023-01-10T17:23:33.661Z,31.50
2023-01-10T17:27:00.596Z,28.40
2023-01-10T17:30:27.584Z,27.40
2023-01-10T17:33:54.716Z,27.30
2023-01-10T17:37:21.684Z,27.30
2023-01-10T17:40:49.890Z,27.60
2023-01-10T17:44:16.914Z,27.40
2023-01-10T17:47:43.812Z,27.90
2023-01-10T17:51:13.225Z,28.50
2023-01-10T17:54:40.393Z,31.70
2023-01-10T17:58:07.511Z,33.30
2023-01-10T18:01:34.631Z,32.60
2023-01-10T18:05:01.826Z,32.70
2023-01-10T18:08:28.727Z,33.90
2023-01-10T18:11:55.900Z,35.30
2023-01-10T18:15:22.873Z,39.50
2023-01-10T18:18:50.386Z,42.50
2023-01-10T18:22:35.517Z,37.90
2023-01-10T18:26:04.862Z,32.40
2023-01-10T18:29:31.913Z,31.50
2023-01-10T18:32:59.586Z,31.40
2023-01-10T18:36:26.833Z,31.70
2023-01-10T18:39:53.867Z,30.40
2023-01-10T18:43:20.843Z,31.00
2023-01-10T18:46:47.808Z,31.20
2023-01-10T18:50:15.240Z,34.10
2023-01-10T18:53:42.724Z,37.70
2023-01-10T18:57:10.172Z,42.60
2023-01-10T19:00:37.323Z,37.90
2023-01-10T19:04:05.204Z,39.90
2023-01-10T19:07:32.262Z,35.90
2023-01-10T19:11:12.931Z,33.40
2023-01-10T19:14:41.373Z,30.60
2023-01-10T19:18:08.517Z,29.60
2023-01-10T19:21:37.942Z,32.30
2023-01-10T19:25:05.387Z,31.90
2023-01-10T19:28:32.308Z,29.90
2023-01-10T19:31:59.333Z,31.00
2023-01-10T19:35:26.281Z,30.00
2023-01-10T19:38:56.929Z,30.80
2023-01-10T19:42:25.947Z,30.00
2023-01-10T19:45:53.465Z,29.40
2023-01-10T19:49:20.742Z,34.30
2023-01-10T19:52:49.531Z,35.10
2023-01-10T19:56:21.776Z,35.80
2023-01-10T19:59:51.914Z,26.70
2023-01-10T20:03:18.908Z,31.00
2023-01-10T20:06:47.551Z,33.40
2023-01-10T20:10:15.131Z,39.40
2023-01-10T20:13:45.289Z,48.80
2023-01-10T20:17:12.354Z,36.70
2023-01-10T20:20:41.587Z,62.00
2023-01-10T20:24:14.107Z,41.50
2023-01-10T20:27:41.672Z,35.10
2023-01-10T20:31:10.910Z,32.20
2023-01-10T20:34:38.231Z,31.40
2023-01-10T20:38:07.791Z,32.10
2023-01-10T20:45:00.905Z,31.00
2023-01-10T20:48:28.027Z,31.90
2023-01-10T20:51:55.015Z,31.20
2023-01-10T20:55:23.472Z,29.20
2023-01-10T20:58:51.625Z,25.50
2023-01-10T21:02:18.886Z,25.30
2023-01-10T21:05:51.679Z,26.40
2023-01-10T21:09:19.749Z,28.20
2023-01-10T21:12:46.804Z,28.10
2023-01-10T21:16:17.234Z,29.50
2023-01-10T21:19:44.298Z,30.30
2023-01-10T21:23:11.946Z,30.00
2023-01-10T21:26:39.391Z,32.50
2023-01-10T21:30:09.968Z,30.40
2023-01-10T21:33:37.386Z,29.40
2023-01-10T21:37:04.297Z,31.50
2023-01-10T21:40:32.222Z,33.60
2023-01-10T21:43:59.455Z,33.40
2023-01-10T21:47:26.720Z,30.90
2023-01-10T21:50:53.573Z,31.00
2023-01-10T21:54:20.698Z,28.00
2023-01-10T21:57:48.145Z,27.60
2023-01-10T22:01:15.306Z,27.80
2023-01-10T22:04:43.102Z,27.90
2023-01-10T22:08:10.296Z,26.60
2023-01-10T22:11:37.321Z,23.70
2023-01-10T22:15:04.821Z,25.30
2023-01-10T22:18:33.163Z,23.30
2023-01-10T22:22:01.164Z,24.40
2023-01-10T22:25:28.448Z,22.90
2023-01-10T22:28:55.376Z,22.30
2023-01-10T22:32:22.242Z,21.00
2023-01-10T22:35:49.281Z,23.00
2023-01-10T22:39:16.634Z,23.10
2023-01-10T22:42:43.617Z,22.40
2023-01-10T22:46:10.885Z,21.20
2023-01-10T22:49:37.742Z,20.90
2023-01-10T22:53:05.597Z,20.70
2023-01-10T22:56:33.411Z,21.30
2023-01-10T23:00:00.654Z,20.30
2023-01-10T23:03:27.908Z,22.90
2023-01-10T23:06:56.797Z,21.30
2023-01-10T23:10:30.613Z,21.60
2023-01-10T23:13:58.177Z,21.70
2023-01-10T23:17:25.187Z,19.20
2023-01-10T23:20:52.953Z,21.70
2023-01-10T23:24:19.982Z,20.50
2023-01-10T23:27:47.796Z,20.20
2023-01-10T23:31:19.417Z,20.50
2023-01-10T23:34:48.812Z,18.80
2023-01-10T23:38:15.729Z,19.80
2023-01-10T23:41:42.658Z,19.70
2023-01-10T23:45:12.624Z,19.00
2023-01-10T23:48:40.534Z,19.00
2023-01-10T23:52:07.969Z,19.70
2023-01-10T23:55:35.745Z,18.20
2023-01-10T23:59:02.682Z,19.70
